sensor_id;sensor_type;location;lat;lon;timestamp;P1;durP1;ratioP1;P2;durP2;ratioP2
29380;SDS011;16364;52.490;13.326;2023-08-31T00:01:28;2.30;;;2.10;;
29380;SDS011;16364;52.490;13.326;2023-08-31T00:03:53;3.20;;;3.00;;
29380;SDS011;16364;52.490;13.326;2023-08-31T00:06:19;2.93;;;2.70;;
29380;SDS011;16364;52.490;13.326;2023-08-31T00:08:46;2.73;;;2.40;;
29380;SDS011;16364;52.490;13.326;2023-08-31T00:11:12;2.90;;;2.30;;
29380;SDS011;16364;52.490;13.326;2023-08-31T00:13:37;2.60;;;2.40;;
29380;SDS011;16364;52.490;13.326;2023-08-31T00:16:03;3.17;;;2.97;;
29380;SDS011;16364;52.490;13.326;2023-08-31T00:18:29;2.80;;;2.60;;
29380;SDS011;16364;52.490;13.326;2023-08-31T00:20:55;3.10;;;2.80;;
29380;SDS011;16364;52.490;13.326;2023-08-31T00:23:20;2.77;;;2.57;;
29380;SDS011;16364;52.490;13.326;2023-08-31T00:25:46;2.87;;;2.60;;
29380;SDS011;16364;52.490;13.326;2023-08-31T00:28:12;3.57;;;3.37;;
29380;SDS011;16364;52.490;13.326;2023-08-31T00:30:40;2.70;;;2.50;;
29380;SDS011;16364;52.490;13.326;2023-08-31T00:33:05;2.43;;;2.23;;
29380;SDS011;16364;52.490;13.326;2023-08-31T00:35:33;2.57;;;2.37;;
29380;SDS011;16364;52.490;13.326;2023-08-31T00:37:58;2.40;;;2.23;;
29380;SDS011;16364;52.490;13.326;2023-08-31T00:40:24;2.77;;;2.57;;
29380;SDS011;16364;52.490;13.326;2023-08-31T00:42:49;2.73;;;2.50;;
29380;SDS011;16364;52.490;13.326;2023-08-31T00:45:14;3.57;;;3.27;;
29380;SDS011;16364;52.490;13.326;2023-08-31T00:47:40;2.90;;;2.70;;
29380;SDS011;16364;52.490;13.326;2023-08-31T00:50:06;2.77;;;2.53;;
29380;SDS011;16364;52.490;13.326;2023-08-31T00:52:32;2.93;;;2.73;;
29380;SDS011;16364;52.490;13.326;2023-08-31T00:54:58;2.80;;;2.60;;
29380;SDS011;16364;52.490;13.326;2023-08-31T00:57:23;2.90;;;2.70;;
29380;SDS011;16364;52.490;13.326;2023-08-31T00:59:51;2.70;;;2.50;;
29380;SDS011;16364;52.490;13.326;2023-08-31T01:02:21;3.27;;;3.07;;
29380;SDS011;16364;52.490;13.326;2023-08-31T01:04:57;3.03;;;2.83;;
29380;SDS011;16364;52.490;13.326;2023-08-31T01:07:31;3.33;;;3.03;;
29380;SDS011;16364;52.490;13.326;2023-08-31T01:10:14;2.97;;;2.77;;
29380;SDS011;16364;52.490;13.326;2023-08-31T01:15:23;3.83;;;3.53;;
29380;SDS011;16364;52.490;13.326;2023-08-31T01:17:50;4.17;;;3.87;;
29380;SDS011;16364;52.490;13.326;2023-08-31T01:20:17;4.70;;;4.30;;
29380;SDS011;16364;52.490;13.326;2023-08-31T01:25:16;4.30;;;4.00;;
29380;SDS011;16364;52.490;13.326;2023-08-31T01:27:41;4.33;;;4.03;;
29380;SDS011;16364;52.490;13.326;2023-08-31T01:30:06;4.03;;;3.73;;
29380;SDS011;16364;52.490;13.326;2023-08-31T01:32:32;4.60;;;4.20;;
29380;SDS011;16364;52.490;13.326;2023-08-31T01:34:57;4.83;;;4.53;;
29380;SDS011;16364;52.490;13.326;2023-08-31T01:40:06;4.33;;;4.03;;
29380;SDS011;16364;52.490;13.326;2023-08-31T01:42:35;4.70;;;4.20;;
29380;SDS011;16364;52.490;13.326;2023-08-31T01:45:01;4.93;;;4.07;;
29380;SDS011;16364;52.490;13.326;2023-08-31T01:47:28;5.67;;;3.83;;
29380;SDS011;16364;52.490;13.326;2023-08-31T01:49:53;3.57;;;3.37;;
29380;SDS011;16364;52.490;13.326;2023-08-31T01:52:18;2.60;;;2.40;;
29380;SDS011;16364;52.490;13.326;2023-08-31T01:54:43;2.57;;;2.37;;
29380;SDS011;16364;52.490;13.326;2023-08-31T01:57:09;2.50;;;2.30;;
29380;SDS011;16364;52.490;13.326;2023-08-31T01:59:34;2.80;;;2.60;;
29380;SDS011;16364;52.490;13.326;2023-08-31T02:02:00;3.40;;;3.17;;
29380;SDS011;16364;52.490;13.326;2023-08-31T02:04:25;3.00;;;2.80;;
29380;SDS011;16364;52.490;13.326;2023-08-31T02:06:50;3.10;;;2.90;;
29380;SDS011;16364;52.490;13.326;2023-08-31T02:09:16;3.30;;;3.00;;
29380;SDS011;16364;52.490;13.326;2023-08-31T02:11:41;2.33;;;2.20;;
29380;SDS011;16364;52.490;13.326;2023-08-31T02:14:06;2.70;;;2.47;;
29380;SDS011;16364;52.490;13.326;2023-08-31T02:16:32;2.90;;;2.70;;
29380;SDS011;16364;52.490;13.326;2023-08-31T02:18:58;3.27;;;2.97;;
29380;SDS011;16364;52.490;13.326;2023-08-31T02:21:23;2.40;;;2.20;;
29380;SDS011;16364;52.490;13.326;2023-08-31T02:23:48;2.20;;;2.00;;
29380;SDS011;16364;52.490;13.326;2023-08-31T02:26:14;3.03;;;2.57;;
29380;SDS011;16364;52.490;13.326;2023-08-31T02:28:39;1.87;;;1.77;;
29380;SDS011;16364;52.490;13.326;2023-08-31T02:31:04;2.00;;;1.90;;
29380;SDS011;16364;52.490;13.326;2023-08-31T02:33:29;2.27;;;2.07;;
29380;SDS011;16364;52.490;13.326;2023-08-31T02:35:55;2.00;;;1.90;;
29380;SDS011;16364;52.490;13.326;2023-08-31T02:38:20;1.80;;;1.70;;
29380;SDS011;16364;52.490;13.326;2023-08-31T02:40:46;2.23;;;2.00;;
29380;SDS011;16364;52.490;13.326;2023-08-31T02:43:11;1.90;;;1.80;;
29380;SDS011;16364;52.490;13.326;2023-08-31T02:45:36;1.70;;;1.60;;
29380;SDS011;16364;52.490;13.326;2023-08-31T02:48:02;1.90;;;1.80;;
29380;SDS011;16364;52.490;13.326;2023-08-31T02:50:28;2.00;;;1.80;;
29380;SDS011;16364;52.490;13.326;2023-08-31T02:52:53;1.77;;;1.67;;
29380;SDS011;16364;52.490;13.326;2023-08-31T02:55:19;1.73;;;1.63;;
29380;SDS011;16364;52.490;13.326;2023-08-31T02:57:44;1.70;;;1.60;;
29380;SDS011;16364;52.490;13.326;2023-08-31T03:00:10;3.30;;;1.77;;
29380;SDS011;16364;52.490;13.326;2023-08-31T03:02:38;1.90;;;1.80;;
29380;SDS011;16364;52.490;13.326;2023-08-31T03:05:03;1.60;;;1.50;;
29380;SDS011;16364;52.490;13.326;2023-08-31T03:07:28;1.70;;;1.60;;
29380;SDS011;16364;52.490;13.326;2023-08-31T03:09:53;1.80;;;1.70;;
29380;SDS011;16364;52.490;13.326;2023-08-31T03:12:19;2.00;;;1.90;;
29380;SDS011;16364;52.490;13.326;2023-08-31T03:14:44;2.00;;;1.90;;
29380;SDS011;16364;52.490;13.326;2023-08-31T03:17:09;2.03;;;1.83;;
29380;SDS011;16364;52.490;13.326;2023-08-31T03:19:34;2.47;;;1.77;;
29380;SDS011;16364;52.490;13.326;2023-08-31T03:22:00;1.93;;;1.77;;
29380;SDS011;16364;52.490;13.326;2023-08-31T03:24:25;1.70;;;1.60;;
29380;SDS011;16364;52.490;13.326;2023-08-31T03:26:50;1.70;;;1.60;;
29380;SDS011;16364;52.490;13.326;2023-08-31T03:29:15;1.83;;;1.73;;
29380;SDS011;16364;52.490;13.326;2023-08-31T03:31:41;2.60;;;2.27;;
29380;SDS011;16364;52.490;13.326;2023-08-31T03:34:06;3.07;;;2.20;;
29380;SDS011;16364;52.490;13.326;2023-08-31T03:36:31;2.00;;;1.80;;
29380;SDS011;16364;52.490;13.326;2023-08-31T03:38:56;2.10;;;1.90;;
29380;SDS011;16364;52.490;13.326;2023-08-31T03:41:22;1.80;;;1.70;;
29380;SDS011;16364;52.490;13.326;2023-08-31T03:43:47;2.83;;;2.63;;
29380;SDS011;16364;52.490;13.326;2023-08-31T03:46:12;2.43;;;1.97;;
29380;SDS011;16364;52.490;13.326;2023-08-31T03:48:37;3.00;;;2.80;;
29380;SDS011;16364;52.490;13.326;2023-08-31T03:51:03;3.93;;;2.90;;
29380;SDS011;16364;52.490;13.326;2023-08-31T03:53:28;2.30;;;2.10;;
29380;SDS011;16364;52.490;13.326;2023-08-31T03:55:54;2.73;;;2.50;;
29380;SDS011;16364;52.490;13.326;2023-08-31T03:58:19;2.77;;;2.57;;
29380;SDS011;16364;52.490;13.326;2023-08-31T04:00:44;3.67;;;3.37;;
29380;SDS011;16364;52.490;13.326;2023-08-31T04:03:09;3.43;;;2.90;;
29380;SDS011;16364;52.490;13.326;2023-08-31T04:05:35;3.67;;;3.37;;
29380;SDS011;16364;52.490;13.326;2023-08-31T04:08:01;3.67;;;3.40;;
29380;SDS011;16364;52.490;13.326;2023-08-31T04:10:26;4.10;;;3.70;;
29380;SDS011;16364;52.490;13.326;2023-08-31T04:12:51;3.67;;;3.33;;
29380;SDS011;16364;52.490;13.326;2023-08-31T04:15:16;3.30;;;2.80;;
29380;SDS011;16364;52.490;13.326;2023-08-31T04:17:42;3.93;;;3.57;;
29380;SDS011;16364;52.490;13.326;2023-08-31T04:20:07;4.40;;;4.00;;
29380;SDS011;16364;52.490;13.326;2023-08-31T04:22:33;9.30;;;4.67;;
29380;SDS011;16364;52.490;13.326;2023-08-31T04:24:58;4.23;;;3.90;;
29380;SDS011;16364;52.490;13.326;2023-08-31T04:27:24;4.73;;;4.30;;
29380;SDS011;16364;52.490;13.326;2023-08-31T04:29:49;5.80;;;4.90;;
29380;SDS011;16364;52.490;13.326;2023-08-31T04:32:14;4.23;;;3.93;;
29380;SDS011;16364;52.490;13.326;2023-08-31T04:34:40;4.90;;;4.40;;
29380;SDS011;16364;52.490;13.326;2023-08-31T04:37:05;4.90;;;4.50;;
29380;SDS011;16364;52.490;13.326;2023-08-31T04:39:30;4.70;;;4.30;;
29380;SDS011;16364;52.490;13.326;2023-08-31T04:41:55;5.13;;;4.73;;
29380;SDS011;16364;52.490;13.326;2023-08-31T04:44:21;4.97;;;4.53;;
29380;SDS011;16364;52.490;13.326;2023-08-31T04:46:46;6.30;;;5.70;;
29380;SDS011;16364;52.490;13.326;2023-08-31T04:49:11;6.50;;;5.90;;
29380;SDS011;16364;52.490;13.326;2023-08-31T04:51:36;5.80;;;4.60;;
29380;SDS011;16364;52.490;13.326;2023-08-31T04:54:06;6.50;;;5.47;;
29380;SDS011;16364;52.490;13.326;2023-08-31T04:56:32;6.53;;;5.07;;
29380;SDS011;16364;52.490;13.326;2023-08-31T04:58:58;6.87;;;5.87;;
29380;SDS011;16364;52.490;13.326;2023-08-31T05:01:23;5.90;;;5.17;;
29380;SDS011;16364;52.490;13.326;2023-08-31T05:03:48;7.30;;;5.97;;
29380;SDS011;16364;52.490;13.326;2023-08-31T05:06:14;10.53;;;6.40;;
29380;SDS011;16364;52.490;13.326;2023-08-31T05:08:39;9.40;;;6.30;;
29380;SDS011;16364;52.490;13.326;2023-08-31T05:11:04;7.97;;;7.10;;
29380;SDS011;16364;52.490;13.326;2023-08-31T05:13:30;7.20;;;6.47;;
29380;SDS011;16364;52.490;13.326;2023-08-31T05:15:55;9.10;;;6.43;;
29380;SDS011;16364;52.490;13.326;2023-08-31T05:18:20;8.13;;;6.93;;
29380;SDS011;16364;52.490;13.326;2023-08-31T05:20:45;9.83;;;6.37;;
29380;SDS011;16364;52.490;13.326;2023-08-31T05:23:13;8.80;;;6.20;;
29380;SDS011;16364;52.490;13.326;2023-08-31T05:25:42;7.30;;;6.70;;
29380;SDS011;16364;52.490;13.326;2023-08-31T05:28:07;9.30;;;7.10;;
29380;SDS011;16364;52.490;13.326;2023-08-31T05:30:32;8.03;;;7.43;;
29380;SDS011;16364;52.490;13.326;2023-08-31T05:32:59;9.73;;;7.30;;
29380;SDS011;16364;52.490;13.326;2023-08-31T05:35:24;7.43;;;6.10;;
29380;SDS011;16364;52.490;13.326;2023-08-31T05:37:50;13.60;;;7.37;;
29380;SDS011;16364;52.490;13.326;2023-08-31T05:40:15;8.70;;;7.50;;
29380;SDS011;16364;52.490;13.326;2023-08-31T05:42:41;8.90;;;6.80;;
29380;SDS011;16364;52.490;13.326;2023-08-31T05:45:07;8.63;;;7.40;;
29380;SDS011;16364;52.490;13.326;2023-08-31T05:47:33;9.30;;;7.57;;
29380;SDS011;16364;52.490;13.326;2023-08-31T05:49:59;11.43;;;7.40;;
29380;SDS011;16364;52.490;13.326;2023-08-31T05:52:25;7.10;;;6.40;;
29380;SDS011;16364;52.490;13.326;2023-08-31T05:54:50;9.93;;;7.80;;
29380;SDS011;16364;52.490;13.326;2023-08-31T05:57:18;8.30;;;7.50;;
29380;SDS011;16364;52.490;13.326;2023-08-31T05:59:44;17.70;;;7.63;;
29380;SDS011;16364;52.490;13.326;2023-08-31T06:02:09;8.43;;;7.57;;
29380;SDS011;16364;52.490;13.326;2023-08-31T06:04:34;11.00;;;7.40;;
29380;SDS011;16364;52.490;13.326;2023-08-31T06:07:00;8.50;;;7.33;;
29380;SDS011;16364;52.490;13.326;2023-08-31T06:09:25;7.07;;;6.37;;
29380;SDS011;16364;52.490;13.326;2023-08-31T06:11:50;10.57;;;7.30;;
29380;SDS011;16364;52.490;13.326;2023-08-31T06:14:15;7.57;;;6.87;;
29380;SDS011;16364;52.490;13.326;2023-08-31T06:16:41;7.47;;;6.87;;
29380;SDS011;16364;52.490;13.326;2023-08-31T06:19:06;9.13;;;6.60;;
29380;SDS011;16364;52.490;13.326;2023-08-31T06:21:32;7.07;;;6.47;;
29380;SDS011;16364;52.490;13.326;2023-08-31T06:23:57;8.33;;;7.17;;
29380;SDS011;16364;52.490;13.326;2023-08-31T06:26:22;9.07;;;6.60;;
29380;SDS011;16364;52.490;13.326;2023-08-31T06:28:47;8.90;;;8.03;;
29380;SDS011;16364;52.490;13.326;2023-08-31T06:31:12;8.17;;;7.37;;
29380;SDS011;16364;52.490;13.326;2023-08-31T06:33:38;6.83;;;6.23;;
29380;SDS011;16364;52.490;13.326;2023-08-31T06:36:03;8.23;;;7.00;;
29380;SDS011;16364;52.490;13.326;2023-08-31T06:38:28;8.80;;;7.93;;
29380;SDS011;16364;52.490;13.326;2023-08-31T06:40:53;8.03;;;7.23;;
29380;SDS011;16364;52.490;13.326;2023-08-31T06:43:24;8.67;;;7.83;;
29380;SDS011;16364;52.490;13.326;2023-08-31T06:45:51;9.73;;;8.10;;
29380;SDS011;16364;52.490;13.326;2023-08-31T06:48:16;9.20;;;7.93;;
29380;SDS011;16364;52.490;13.326;2023-08-31T06:50:41;7.93;;;7.23;;
29380;SDS011;16364;52.490;13.326;2023-08-31T06:53:07;9.80;;;6.87;;
29380;SDS011;16364;52.490;13.326;2023-08-31T06:55:32;7.67;;;6.97;;
29380;SDS011;16364;52.490;13.326;2023-08-31T06:57:58;9.43;;;7.17;;
29380;SDS011;16364;52.490;13.326;2023-08-31T07:00:24;7.33;;;6.73;;
29380;SDS011;16364;52.490;13.326;2023-08-31T07:02:49;8.93;;;6.67;;
29380;SDS011;16364;52.490;13.326;2023-08-31T07:05:14;7.50;;;6.80;;
29380;SDS011;16364;52.490;13.326;2023-08-31T07:07:39;7.93;;;6.97;;
29380;SDS011;16364;52.490;13.326;2023-08-31T07:10:05;10.43;;;6.57;;
29380;SDS011;16364;52.490;13.326;2023-08-31T07:12:30;9.43;;;5.50;;
29380;SDS011;16364;52.490;13.326;2023-08-31T07:14:56;5.00;;;4.60;;
29380;SDS011;16364;52.490;13.326;2023-08-31T07:17:21;7.40;;;5.80;;
29380;SDS011;16364;52.490;13.326;2023-08-31T07:19:46;6.57;;;5.87;;
29380;SDS011;16364;52.490;13.326;2023-08-31T07:22:11;6.33;;;5.73;;
29380;SDS011;16364;52.490;13.326;2023-08-31T07:24:37;6.67;;;6.00;;
29380;SDS011;16364;52.490;13.326;2023-08-31T07:27:02;6.80;;;6.17;;
29380;SDS011;16364;52.490;13.326;2023-08-31T07:29:28;5.73;;;5.33;;
29380;SDS011;16364;52.490;13.326;2023-08-31T07:31:53;6.00;;;5.40;;
29380;SDS011;16364;52.490;13.326;2023-08-31T07:34:18;6.67;;;6.03;;
29380;SDS011;16364;52.490;13.326;2023-08-31T07:36:44;8.23;;;5.30;;
29380;SDS011;16364;52.490;13.326;2023-08-31T07:39:09;10.57;;;6.30;;
29380;SDS011;16364;52.490;13.326;2023-08-31T07:41:34;5.07;;;4.70;;
29380;SDS011;16364;52.490;13.326;2023-08-31T07:44:00;6.63;;;6.03;;
29380;SDS011;16364;52.490;13.326;2023-08-31T07:46:25;6.27;;;5.60;;
29380;SDS011;16364;52.490;13.326;2023-08-31T07:48:50;5.30;;;4.80;;
29380;SDS011;16364;52.490;13.326;2023-08-31T07:51:16;5.90;;;5.30;;
29380;SDS011;16364;52.490;13.326;2023-08-31T07:53:41;5.37;;;4.37;;
29380;SDS011;16364;52.490;13.326;2023-08-31T07:56:06;4.13;;;3.73;;
29380;SDS011;16364;52.490;13.326;2023-08-31T07:58:31;4.00;;;3.60;;
29380;SDS011;16364;52.490;13.326;2023-08-31T08:00:56;3.90;;;3.60;;
29380;SDS011;16364;52.490;13.326;2023-08-31T08:03:22;5.33;;;4.90;;
29380;SDS011;16364;52.490;13.326;2023-08-31T08:05:48;6.53;;;4.87;;
29380;SDS011;16364;52.490;13.326;2023-08-31T08:08:13;3.97;;;3.77;;
29380;SDS011;16364;52.490;13.326;2023-08-31T08:10:38;6.30;;;4.30;;
29380;SDS011;16364;52.490;13.326;2023-08-31T08:13:03;4.47;;;4.00;;
29380;SDS011;16364;52.490;13.326;2023-08-31T08:15:29;4.77;;;4.20;;
29380;SDS011;16364;52.490;13.326;2023-08-31T08:17:54;11.53;;;4.37;;
29380;SDS011;16364;52.490;13.326;2023-08-31T08:20:21;6.83;;;3.57;;
29380;SDS011;16364;52.490;13.326;2023-08-31T08:22:46;4.03;;;2.90;;
29380;SDS011;16364;52.490;13.326;2023-08-31T08:25:12;3.00;;;2.80;;
29380;SDS011;16364;52.490;13.326;2023-08-31T08:27:37;5.83;;;2.67;;
29380;SDS011;16364;52.490;13.326;2023-08-31T08:30:03;3.23;;;2.90;;
29380;SDS011;16364;52.490;13.326;2023-08-31T08:32:28;2.83;;;2.57;;
29380;SDS011;16364;52.490;13.326;2023-08-31T08:34:54;3.40;;;2.80;;
29380;SDS011;16364;52.490;13.326;2023-08-31T08:37:19;4.97;;;2.10;;
29380;SDS011;16364;52.490;13.326;2023-08-31T08:39:47;2.43;;;2.23;;
29380;SDS011;16364;52.490;13.326;2023-08-31T08:42:13;2.97;;;2.00;;
29380;SDS011;16364;52.490;13.326;2023-08-31T08:44:38;4.17;;;2.03;;
29380;SDS011;16364;52.490;13.326;2023-08-31T08:47:04;3.93;;;2.00;;
29380;SDS011;16364;52.490;13.326;2023-08-31T08:49:30;4.13;;;2.00;;
29380;SDS011;16364;52.490;13.326;2023-08-31T08:51:56;2.80;;;1.77;;
29380;SDS011;16364;52.490;13.326;2023-08-31T08:54:24;3.27;;;2.37;;
29380;SDS011;16364;52.490;13.326;2023-08-31T08:56:49;2.00;;;1.70;;
29380;SDS011;16364;52.490;13.326;2023-08-31T08:59:15;1.93;;;1.70;;
29380;SDS011;16364;52.490;13.326;2023-08-31T09:01:40;4.23;;;2.57;;
29380;SDS011;16364;52.490;13.326;2023-08-31T09:04:05;2.70;;;1.90;;
29380;SDS011;16364;52.490;13.326;2023-08-31T09:06:31;2.27;;;1.80;;
29380;SDS011;16364;52.490;13.326;2023-08-31T09:08:56;3.90;;;2.43;;
29380;SDS011;16364;52.490;13.326;2023-08-31T09:11:22;1.93;;;1.73;;
29380;SDS011;16364;52.490;13.326;2023-08-31T09:13:47;3.60;;;2.10;;
29380;SDS011;16364;52.490;13.326;2023-08-31T09:16:22;4.33;;;1.80;;
29380;SDS011;16364;52.490;13.326;2023-08-31T09:18:48;2.90;;;1.97;;
29380;SDS011;16364;52.490;13.326;2023-08-31T09:21:13;1.77;;;1.50;;
29380;SDS011;16364;52.490;13.326;2023-08-31T09:23:39;2.43;;;1.67;;
29380;SDS011;16364;52.490;13.326;2023-08-31T09:26:04;1.90;;;1.70;;
29380;SDS011;16364;52.490;13.326;2023-08-31T09:28:29;5.40;;;2.03;;
29380;SDS011;16364;52.490;13.326;2023-08-31T09:31:07;3.13;;;1.63;;
29380;SDS011;16364;52.490;13.326;2023-08-31T09:33:34;5.33;;;1.97;;
29380;SDS011;16364;52.490;13.326;2023-08-31T09:35:59;4.57;;;1.90;;
29380;SDS011;16364;52.490;13.326;2023-08-31T09:38:26;2.10;;;1.50;;
29380;SDS011;16364;52.490;13.326;2023-08-31T09:40:51;2.27;;;1.73;;
29380;SDS011;16364;52.490;13.326;2023-08-31T09:43:20;1.50;;;1.40;;
29380;SDS011;16364;52.490;13.326;2023-08-31T09:45:48;4.50;;;1.77;;
29380;SDS011;16364;52.490;13.326;2023-08-31T09:48:14;3.80;;;1.60;;
29380;SDS011;16364;52.490;13.326;2023-08-31T09:50:40;1.57;;;1.40;;
29380;SDS011;16364;52.490;13.326;2023-08-31T09:53:08;3.50;;;1.70;;
29380;SDS011;16364;52.490;13.326;2023-08-31T09:55:34;1.70;;;1.40;;
29380;SDS011;16364;52.490;13.326;2023-08-31T09:58:01;1.50;;;1.40;;
29380;SDS011;16364;52.490;13.326;2023-08-31T10:00:28;1.47;;;1.30;;
29380;SDS011;16364;52.490;13.326;2023-08-31T10:03:00;1.53;;;1.30;;
29380;SDS011;16364;52.490;13.326;2023-08-31T10:05:26;2.07;;;1.30;;
29380;SDS011;16364;52.490;13.326;2023-08-31T10:07:52;2.30;;;1.30;;
29380;SDS011;16364;52.490;13.326;2023-08-31T10:10:17;1.80;;;1.27;;
29380;SDS011;16364;52.490;13.326;2023-08-31T10:12:44;1.97;;;1.13;;
29380;SDS011;16364;52.490;13.326;2023-08-31T10:15:10;3.07;;;1.20;;
29380;SDS011;16364;52.490;13.326;2023-08-31T10:17:36;1.50;;;1.10;;
29380;SDS011;16364;52.490;13.326;2023-08-31T10:20:01;2.00;;;1.30;;
29380;SDS011;16364;52.490;13.326;2023-08-31T10:22:28;1.57;;;1.20;;
29380;SDS011;16364;52.490;13.326;2023-08-31T10:25:00;3.47;;;1.20;;
29380;SDS011;16364;52.490;13.326;2023-08-31T10:27:25;1.40;;;1.30;;
29380;SDS011;16364;52.490;13.326;2023-08-31T10:29:50;4.90;;;1.40;;
29380;SDS011;16364;52.490;13.326;2023-08-31T10:32:18;1.10;;;1.00;;
29380;SDS011;16364;52.490;13.326;2023-08-31T10:34:44;1.70;;;1.17;;
29380;SDS011;16364;52.490;13.326;2023-08-31T10:37:28;2.77;;;1.20;;
29380;SDS011;16364;52.490;13.326;2023-08-31T10:40:05;1.40;;;1.27;;
29380;SDS011;16364;52.490;13.326;2023-08-31T10:42:31;7.63;;;2.70;;
29380;SDS011;16364;52.490;13.326;2023-08-31T10:45:04;2.40;;;1.27;;
29380;SDS011;16364;52.490;13.326;2023-08-31T10:47:36;3.80;;;1.37;;
29380;SDS011;16364;52.490;13.326;2023-08-31T10:50:15;2.30;;;1.20;;
29380;SDS011;16364;52.490;13.326;2023-08-31T10:52:43;2.00;;;1.30;;
29380;SDS011;16364;52.490;13.326;2023-08-31T10:55:09;1.90;;;1.27;;
29380;SDS011;16364;52.490;13.326;2023-08-31T10:57:35;1.50;;;1.27;;
29380;SDS011;16364;52.490;13.326;2023-08-31T11:00:00;3.50;;;1.40;;
29380;SDS011;16364;52.490;13.326;2023-08-31T11:02:38;1.30;;;1.20;;
29380;SDS011;16364;52.490;13.326;2023-08-31T11:07:32;1.60;;;1.50;;
29380;SDS011;16364;52.490;13.326;2023-08-31T11:10:06;2.40;;;1.50;;
29380;SDS011;16364;52.490;13.326;2023-08-31T11:12:32;2.60;;;1.50;;
29380;SDS011;16364;52.490;13.326;2023-08-31T11:14:57;3.70;;;1.60;;
29380;SDS011;16364;52.490;13.326;2023-08-31T11:17:23;2.73;;;1.70;;
29380;SDS011;16364;52.490;13.326;2023-08-31T11:19:48;1.70;;;1.60;;
29380;SDS011;16364;52.490;13.326;2023-08-31T11:22:13;1.53;;;1.40;;
29380;SDS011;16364;52.490;13.326;2023-08-31T11:24:39;3.20;;;1.60;;
29380;SDS011;16364;52.490;13.326;2023-08-31T11:27:07;2.43;;;1.53;;
29380;SDS011;16364;52.490;13.326;2023-08-31T11:29:32;2.17;;;1.90;;
29380;SDS011;16364;52.490;13.326;2023-08-31T11:31:57;2.33;;;1.67;;
29380;SDS011;16364;52.490;13.326;2023-08-31T11:34:26;3.00;;;1.57;;
29380;SDS011;16364;52.490;13.326;2023-08-31T11:36:52;1.30;;;1.20;;
29380;SDS011;16364;52.490;13.326;2023-08-31T11:39:17;2.60;;;1.70;;
29380;SDS011;16364;52.490;13.326;2023-08-31T11:41:43;1.40;;;1.30;;
29380;SDS011;16364;52.490;13.326;2023-08-31T11:44:13;4.27;;;1.53;;
29380;SDS011;16364;52.490;13.326;2023-08-31T11:46:39;1.40;;;1.30;;
29380;SDS011;16364;52.490;13.326;2023-08-31T11:49:05;6.00;;;1.63;;
29380;SDS011;16364;52.490;13.326;2023-08-31T11:51:31;1.63;;;1.53;;
29380;SDS011;16364;52.490;13.326;2023-08-31T11:53:57;2.53;;;1.80;;
29380;SDS011;16364;52.490;13.326;2023-08-31T11:56:24;4.43;;;2.00;;
29380;SDS011;16364;52.490;13.326;2023-08-31T11:58:52;4.97;;;1.80;;
29380;SDS011;16364;52.490;13.326;2023-08-31T12:01:18;2.07;;;1.57;;
29380;SDS011;16364;52.490;13.326;2023-08-31T12:03:44;4.63;;;1.77;;
29380;SDS011;16364;52.490;13.326;2023-08-31T12:06:10;3.83;;;1.87;;
29380;SDS011;16364;52.490;13.326;2023-08-31T12:08:36;1.97;;;1.87;;
29380;SDS011;16364;52.490;13.326;2023-08-31T12:11:02;2.63;;;2.43;;
29380;SDS011;16364;52.490;13.326;2023-08-31T12:13:27;6.80;;;2.27;;
29380;SDS011;16364;52.490;13.326;2023-08-31T12:15:58;5.43;;;2.13;;
29380;SDS011;16364;52.490;13.326;2023-08-31T12:18:26;2.90;;;2.60;;
29380;SDS011;16364;52.490;13.326;2023-08-31T12:20:54;1.80;;;1.70;;
29380;SDS011;16364;52.490;13.326;2023-08-31T12:23:19;2.27;;;1.90;;
29380;SDS011;16364;52.490;13.326;2023-08-31T12:25:47;2.97;;;2.00;;
29380;SDS011;16364;52.490;13.326;2023-08-31T12:28:13;2.30;;;2.07;;
29380;SDS011;16364;52.490;13.326;2023-08-31T12:30:38;2.70;;;1.80;;
29380;SDS011;16364;52.490;13.326;2023-08-31T12:33:03;2.93;;;2.50;;
29380;SDS011;16364;52.490;13.326;2023-08-31T12:35:28;5.63;;;1.90;;
29380;SDS011;16364;52.490;13.326;2023-08-31T12:37:55;3.20;;;2.20;;
29380;SDS011;16364;52.490;13.326;2023-08-31T12:40:22;2.13;;;1.93;;
29380;SDS011;16364;52.490;13.326;2023-08-31T12:42:47;2.90;;;2.53;;
29380;SDS011;16364;52.490;13.326;2023-08-31T12:45:12;2.57;;;2.37;;
29380;SDS011;16364;52.490;13.326;2023-08-31T12:47:38;3.53;;;2.20;;
29380;SDS011;16364;52.490;13.326;2023-08-31T12:50:03;3.83;;;2.23;;
29380;SDS011;16364;52.490;13.326;2023-08-31T12:52:29;2.50;;;2.00;;
29380;SDS011;16364;52.490;13.326;2023-08-31T12:54:54;2.07;;;1.80;;
29380;SDS011;16364;52.490;13.326;2023-08-31T12:57:19;1.63;;;1.33;;
29380;SDS011;16364;52.490;13.326;2023-08-31T12:59:44;1.50;;;1.40;;
29380;SDS011;16364;52.490;13.326;2023-08-31T13:02:10;1.20;;;1.10;;
29380;SDS011;16364;52.490;13.326;2023-08-31T13:04:37;1.93;;;1.20;;
29380;SDS011;16364;52.490;13.326;2023-08-31T13:07:02;1.47;;;1.37;;
29380;SDS011;16364;52.490;13.326;2023-08-31T13:09:28;1.30;;;1.20;;
29380;SDS011;16364;52.490;13.326;2023-08-31T13:11:53;2.30;;;1.27;;
29380;SDS011;16364;52.490;13.326;2023-08-31T13:14:18;1.20;;;1.10;;
29380;SDS011;16364;52.490;13.326;2023-08-31T13:16:43;1.10;;;1.00;;
29380;SDS011;16364;52.490;13.326;2023-08-31T13:19:09;1.97;;;1.20;;
29380;SDS011;16364;52.490;13.326;2023-08-31T13:21:34;1.00;;;1.00;;
29380;SDS011;16364;52.490;13.326;2023-08-31T13:23:59;1.13;;;1.03;;
29380;SDS011;16364;52.490;13.326;2023-08-31T13:26:25;4.47;;;1.40;;
29380;SDS011;16364;52.490;13.326;2023-08-31T13:28:51;0.90;;;0.90;;
29380;SDS011;16364;52.490;13.326;2023-08-31T13:31:16;1.40;;;1.20;;
29380;SDS011;16364;52.490;13.326;2023-08-31T13:33:41;1.80;;;1.30;;
29380;SDS011;16364;52.490;13.326;2023-08-31T13:36:07;1.20;;;1.10;;
29380;SDS011;16364;52.490;13.326;2023-08-31T13:38:34;1.07;;;0.97;;
29380;SDS011;16364;52.490;13.326;2023-08-31T13:40:59;1.40;;;1.30;;
29380;SDS011;16364;52.490;13.326;2023-08-31T13:43:25;1.20;;;1.03;;
29380;SDS011;16364;52.490;13.326;2023-08-31T13:45:50;1.30;;;1.20;;
29380;SDS011;16364;52.490;13.326;2023-08-31T13:48:16;1.20;;;1.10;;
29380;SDS011;16364;52.490;13.326;2023-08-31T13:50:41;1.20;;;1.10;;
29380;SDS011;16364;52.490;13.326;2023-08-31T13:53:06;1.27;;;1.13;;
29380;SDS011;16364;52.490;13.326;2023-08-31T13:55:31;1.30;;;1.20;;
29380;SDS011;16364;52.490;13.326;2023-08-31T13:58:03;1.57;;;1.47;;
29380;SDS011;16364;52.490;13.326;2023-08-31T14:00:28;2.10;;;1.40;;
29380;SDS011;16364;52.490;13.326;2023-08-31T14:02:54;1.47;;;1.10;;
29380;SDS011;16364;52.490;13.326;2023-08-31T14:05:19;2.33;;;1.37;;
29380;SDS011;16364;52.490;13.326;2023-08-31T14:07:44;1.43;;;1.23;;
29380;SDS011;16364;52.490;13.326;2023-08-31T14:10:10;1.90;;;1.40;;
29380;SDS011;16364;52.490;13.326;2023-08-31T14:12:35;1.40;;;1.30;;
29380;SDS011;16364;52.490;13.326;2023-08-31T14:15:01;1.47;;;1.20;;
29380;SDS011;16364;52.490;13.326;2023-08-31T14:17:29;1.50;;;1.20;;
29380;SDS011;16364;52.490;13.326;2023-08-31T14:19:54;1.30;;;1.20;;
29380;SDS011;16364;52.490;13.326;2023-08-31T14:22:19;1.20;;;1.10;;
29380;SDS011;16364;52.490;13.326;2023-08-31T14:24:44;1.53;;;1.10;;
29380;SDS011;16364;52.490;13.326;2023-08-31T14:27:10;0.80;;;0.80;;
29380;SDS011;16364;52.490;13.326;2023-08-31T14:29:36;1.53;;;0.90;;
29380;SDS011;16364;52.490;13.326;2023-08-31T14:32:01;0.83;;;0.80;;
29380;SDS011;16364;52.490;13.326;2023-08-31T14:34:27;0.70;;;0.70;;
29380;SDS011;16364;52.490;13.326;2023-08-31T14:36:52;1.70;;;0.90;;